Tooele Army Depot, Utah
Current Conditions -  °F | °C
As of 8:53 AM on Monday 24 Nov 2014 (Local Time) from KSLC Reporting Station
Scattered Clouds Scattered Clouds  
Wind Chill: 30°   Ceiling: Unl
Heat Index: 38°   Visibility: 10mi
Dew Point: 26°   Wind: 12mph
Humidity: 62%   Direction: 340°NNW
Pressure: 30.29"   Gusts: NA
Location:  40.5393°N, 112.353°W
Report Text: KSLC 241553Z 34010KT 10SM FEW039 SCT048 SCT065 03/M03 A3029 RMK AO2 GSB15E35SNB34E43 SLP261 VIRGA SW SH DSNT E-SE P0000 T00331033
Loading
Personal Weather Stations






























Interactive Weather Map New forecast layout! Learn more

10-Day Weather Forecast

Advertisements
Track Severe Weather on mobile